createdAt,value
2022-12-18T00:01:44.620Z,-6.40
2022-12-18T00:04:20.056Z,-6.37
2022-12-18T00:06:46.652Z,-6.11
2022-12-18T00:09:15.074Z,-6.29
2022-12-18T00:11:41.539Z,-6.26
2022-12-18T00:14:08.046Z,-6.43
2022-12-18T00:16:36.430Z,-6.37
2022-12-18T00:19:03.078Z,-6.33
2022-12-18T00:21:30.384Z,-6.46
2022-12-18T00:23:57.309Z,-6.51
2022-12-18T00:26:28.582Z,-6.66
2022-12-18T00:28:56.629Z,-6.86
2022-12-18T00:31:24.138Z,-6.93
2022-12-18T00:33:54.203Z,-6.80
2022-12-18T00:36:23.072Z,-6.92
2022-12-18T00:38:50.055Z,-6.87
2022-12-18T00:41:39.886Z,-6.76
2022-12-18T00:44:08.171Z,-6.62
2022-12-18T00:46:34.731Z,-6.86
2022-12-18T00:49:01.195Z,-6.75
2022-12-18T00:51:27.730Z,-6.77
2022-12-18T00:53:54.457Z,-6.76
2022-12-18T00:56:23.822Z,-6.73
2022-12-18T00:58:50.304Z,-6.89
2022-12-18T01:01:17.134Z,-6.77
2022-12-18T01:03:43.830Z,-6.81
2022-12-18T01:06:11.429Z,-6.71
2022-12-18T01:08:38.343Z,-6.81
2022-12-18T01:11:08.750Z,-6.97
2022-12-18T01:13:35.522Z,-6.97
2022-12-18T01:16:02.189Z,-7.06
2022-12-18T01:18:28.795Z,-7.00
2022-12-18T01:20:55.240Z,-7.14
2022-12-18T01:23:21.656Z,-6.88
2022-12-18T01:25:48.148Z,-6.86
2022-12-18T01:28:14.583Z,-7.13
2022-12-18T01:30:41.018Z,-7.04
2022-12-18T01:33:07.536Z,-7.04
2022-12-18T01:35:33.967Z,-6.86
2022-12-18T01:38:00.415Z,-7.17
2022-12-18T01:40:26.964Z,-7.06
2022-12-18T01:42:54.665Z,-7.05
2022-12-18T01:45:26.389Z,-7.08
2022-12-18T01:47:55.843Z,-6.98
2022-12-18T01:50:31.574Z,-6.90
2022-12-18T01:53:01.000Z,-7.09
2022-12-18T01:55:29.710Z,-6.89
2022-12-18T01:57:57.453Z,-6.94
2022-12-18T02:00:24.801Z,-7.18
2022-12-18T02:02:51.636Z,-6.98
2022-12-18T02:05:20.222Z,-6.77
2022-12-18T02:07:53.154Z,-6.77
2022-12-18T02:10:28.439Z,-6.75
2022-12-18T02:13:04.133Z,-6.72
2022-12-18T02:15:49.350Z,-6.71
2022-12-18T02:18:20.198Z,-6.77
2022-12-18T02:20:50.027Z,-7.01
2022-12-18T02:23:22.595Z,-6.80
2022-12-18T02:25:52.191Z,-6.79
2022-12-18T02:28:21.157Z,-6.69
2022-12-18T02:30:50.189Z,-6.77
2022-12-18T02:33:17.252Z,-6.68
2022-12-18T02:35:44.498Z,-6.75
2022-12-18T02:38:12.980Z,-6.91
2022-12-18T02:40:40.127Z,-7.07
2022-12-18T02:43:14.247Z,-6.89
2022-12-18T02:45:53.184Z,-6.90
2022-12-18T02:48:23.571Z,-6.97
2022-12-18T02:50:55.215Z,-6.94
2022-12-18T02:53:25.448Z,-6.98
2022-12-18T02:56:08.373Z,-6.81
2022-12-18T02:58:53.727Z,-6.83
2022-12-18T03:01:32.784Z,-6.74
2022-12-18T03:04:02.397Z,-6.98
2022-12-18T03:06:49.545Z,-6.81
2022-12-18T03:09:18.871Z,-7.02
2022-12-18T03:12:07.430Z,-6.72
2022-12-18T03:14:35.305Z,-6.77
2022-12-18T03:17:05.130Z,-6.62
2022-12-18T03:19:33.305Z,-6.57
2022-12-18T03:22:02.224Z,-6.71
2022-12-18T03:24:30.809Z,-6.85
2022-12-18T03:27:01.379Z,-6.84
2022-12-18T03:29:31.276Z,-6.79
2022-12-18T03:32:03.948Z,-6.91
2022-12-18T03:34:31.906Z,-6.58
2022-12-18T03:36:58.698Z,-6.60
2022-12-18T03:39:25.701Z,-6.58
2022-12-18T03:42:04.177Z,-6.58
2022-12-18T03:44:48.932Z,-6.45
2022-12-18T03:47:17.815Z,-6.66
2022-12-18T03:49:44.216Z,-6.81
2022-12-18T03:52:13.541Z,-6.85
2022-12-18T03:54:41.993Z,-6.93
2022-12-18T03:57:12.828Z,-6.80
2022-12-18T03:59:40.790Z,-6.53
2022-12-18T04:02:08.584Z,-6.70
2022-12-18T04:04:36.613Z,-6.53
2022-12-18T04:07:03.615Z,-6.79
2022-12-18T04:09:31.380Z,-6.66
2022-12-18T04:11:57.826Z,-6.93
2022-12-18T04:14:24.263Z,-7.00
2022-12-18T04:16:50.719Z,-6.73
2022-12-18T04:19:17.192Z,-6.65
2022-12-18T04:21:43.651Z,-6.89
2022-12-18T04:24:10.491Z,-6.74
2022-12-18T04:26:37.106Z,-6.79
2022-12-18T04:29:03.897Z,-6.71
2022-12-18T04:31:30.464Z,-6.86
2022-12-18T04:33:57.008Z,-6.78
2022-12-18T04:36:23.449Z,-6.81
2022-12-18T04:38:50.002Z,-6.54
2022-12-18T04:41:16.492Z,-6.54
2022-12-18T04:43:43.060Z,-6.66
2022-12-18T04:46:09.873Z,-6.81
2022-12-18T04:48:36.697Z,-6.97
2022-12-18T04:51:03.714Z,-6.92
2022-12-18T04:53:30.200Z,-6.76
2022-12-18T04:56:06.870Z,-6.80
2022-12-18T04:58:33.477Z,-6.69
2022-12-18T05:01:00.091Z,-6.66
2022-12-18T05:03:26.631Z,-6.81
2022-12-18T05:05:53.344Z,-7.14
2022-12-18T05:08:19.776Z,-6.95
2022-12-18T05:10:46.508Z,-6.92
2022-12-18T05:13:13.020Z,-6.82
2022-12-18T05:15:39.569Z,-6.82
2022-12-18T05:18:06.074Z,-6.90
2022-12-18T05:20:32.837Z,-6.74
2022-12-18T05:22:59.340Z,-6.66
2022-12-18T05:25:25.985Z,-6.85
2022-12-18T05:27:52.518Z,-6.81
2022-12-18T05:30:18.960Z,-7.00
2022-12-18T05:32:45.434Z,-6.95
2022-12-18T05:35:12.172Z,-6.95
2022-12-18T05:37:42.901Z,-7.04
2022-12-18T05:40:10.187Z,-7.10
2022-12-18T05:42:36.672Z,-7.09
2022-12-18T05:45:03.159Z,-6.98
2022-12-18T05:47:29.867Z,-6.93
2022-12-18T05:49:56.383Z,-7.02
2022-12-18T05:52:22.812Z,-7.01
2022-12-18T05:54:49.247Z,-7.04
2022-12-18T05:57:16.220Z,-6.92
2022-12-18T05:59:42.705Z,-7.09
2022-12-18T06:02:09.215Z,-7.15
2022-12-18T06:04:35.792Z,-7.19
2022-12-18T06:07:02.219Z,-7.28
2022-12-18T06:09:29.922Z,-7.06
2022-12-18T06:11:56.460Z,-7.08
2022-12-18T06:14:22.960Z,-7.31
2022-12-18T06:16:51.384Z,-7.21
2022-12-18T06:19:17.996Z,-7.20
2022-12-18T06:21:44.466Z,-7.09
2022-12-18T06:24:11.081Z,-7.22
2022-12-18T06:26:38.419Z,-7.18
2022-12-18T06:29:04.887Z,-7.26
2022-12-18T06:31:31.437Z,-6.97
2022-12-18T06:33:58.050Z,-7.05
2022-12-18T06:36:24.588Z,-7.15
2022-12-18T06:38:51.027Z,-7.06
2022-12-18T06:41:19.333Z,-6.89
2022-12-18T06:43:45.809Z,-6.78
2022-12-18T06:46:12.818Z,-7.22
2022-12-18T06:48:39.622Z,-7.11
2022-12-18T06:51:06.163Z,-7.27
2022-12-18T06:53:33.092Z,-7.07
2022-12-18T06:56:09.224Z,-6.90
2022-12-18T06:58:36.643Z,-7.00
2022-12-18T07:01:04.056Z,-6.90
2022-12-18T07:03:30.635Z,-6.83
2022-12-18T07:05:57.270Z,-6.83
2022-12-18T07:08:23.759Z,-6.76
2022-12-18T07:10:54.432Z,-6.67
2022-12-18T07:13:22.767Z,-6.65
2022-12-18T07:15:49.404Z,-6.62
2022-12-18T07:18:15.880Z,-6.76
2022-12-18T07:20:42.318Z,-6.74
2022-12-18T07:23:08.830Z,-6.43
2022-12-18T07:25:38.454Z,-6.66
2022-12-18T07:28:05.330Z,-6.82
2022-12-18T07:30:31.824Z,-6.74
2022-12-18T07:32:58.346Z,-6.87
2022-12-18T07:35:25.401Z,-6.67
2022-12-18T07:37:52.128Z,-6.48
2022-12-18T07:40:18.586Z,-6.58
2022-12-18T07:42:45.064Z,-6.41
2022-12-18T07:45:11.963Z,-6.20
2022-12-18T07:47:38.611Z,-6.25
2022-12-18T07:50:05.751Z,-6.12
2022-12-18T07:52:32.250Z,-6.28
2022-12-18T07:54:59.606Z,-6.32
2022-12-18T08:00:13.977Z,-6.29
2022-12-18T08:02:40.484Z,-6.35
2022-12-18T08:05:09.025Z,-6.56
2022-12-18T08:07:35.468Z,-6.19
2022-12-18T08:10:01.969Z,-6.11
2022-12-18T08:12:28.447Z,-6.00
2022-12-18T08:14:54.932Z,-6.11
2022-12-18T08:17:21.512Z,-6.02
2022-12-18T08:19:48.214Z,-6.15
2022-12-18T08:22:14.729Z,-6.27
2022-12-18T08:24:41.209Z,-6.36
2022-12-18T08:29:54.145Z,-6.34
2022-12-18T08:32:20.674Z,-6.64
2022-12-18T08:34:47.128Z,-6.36
2022-12-18T08:37:13.573Z,-6.28
2022-12-18T08:39:40.068Z,-6.00
2022-12-18T08:42:25.290Z,-5.94
2022-12-18T08:44:51.792Z,-6.06
2022-12-18T08:47:18.245Z,-6.04
2022-12-18T08:49:44.689Z,-5.80
2022-12-18T08:52:11.194Z,-5.90
2022-12-18T08:54:37.630Z,-5.89
2022-12-18T08:57:04.145Z,-6.09
2022-12-18T08:59:30.692Z,-5.96
2022-12-18T09:01:57.195Z,-5.86
2022-12-18T09:04:23.811Z,-5.88
2022-12-18T09:06:50.406Z,-5.56
2022-12-18T09:09:16.965Z,-5.86
2022-12-18T09:11:43.417Z,-5.58
2022-12-18T09:14:10.626Z,-5.50
2022-12-18T09:16:37.353Z,-5.69
2022-12-18T09:19:04.923Z,-5.72
2022-12-18T09:21:36.828Z,-5.43
2022-12-18T09:24:04.482Z,-5.56
2022-12-18T09:26:33.581Z,-5.63
2022-12-18T09:29:00.075Z,-5.81
2022-12-18T09:31:26.634Z,-5.72
2022-12-18T09:33:53.241Z,-5.55
2022-12-18T09:36:19.921Z,-5.48
2022-12-18T09:38:48.290Z,-5.70
2022-12-18T09:41:37.395Z,-5.64
2022-12-18T09:44:22.577Z,-5.45
2022-12-18T09:46:54.534Z,-5.31
2022-12-18T09:49:23.044Z,-5.50
2022-12-18T09:51:56.773Z,-5.40
2022-12-18T09:54:25.987Z,-5.28
2022-12-18T09:56:53.293Z,-5.32
2022-12-18T09:59:46.389Z,-5.51
2022-12-18T10:02:17.855Z,-5.54
2022-12-18T10:04:44.741Z,-5.51
2022-12-18T10:07:18.622Z,-5.30
2022-12-18T10:10:08.267Z,-5.00
2022-12-18T10:12:37.867Z,-5.08
2022-12-18T10:15:15.167Z,-5.17
2022-12-18T10:18:22.190Z,-5.31
2022-12-18T10:20:57.692Z,-5.30
2022-12-18T10:23:42.470Z,-5.15
2022-12-18T10:26:16.460Z,-5.04
2022-12-18T10:28:43.673Z,-5.27
2022-12-18T10:31:28.791Z,-5.44
2022-12-18T10:33:55.542Z,-5.74
2022-12-18T10:36:24.100Z,-5.47
2022-12-18T10:38:50.653Z,-5.15
2022-12-18T10:41:21.747Z,-5.23
2022-12-18T10:43:48.612Z,-5.20
2022-12-18T10:46:17.015Z,-4.97
2022-12-18T10:48:49.499Z,-4.99
2022-12-18T10:51:27.547Z,-5.12
2022-12-18T10:54:00.757Z,-4.87
2022-12-18T10:56:29.159Z,-5.04
2022-12-18T10:59:03.369Z,-4.89
2022-12-18T11:01:46.651Z,-4.87
2022-12-18T11:04:16.750Z,-4.87
2022-12-18T11:06:57.747Z,-4.89
2022-12-18T11:09:29.082Z,-5.06
2022-12-18T11:11:57.186Z,-4.93
2022-12-18T11:14:47.205Z,-4.69
2022-12-18T11:17:26.274Z,-4.72
2022-12-18T11:19:54.472Z,-4.63
2022-12-18T11:22:22.353Z,-4.49
2022-12-18T11:25:30.205Z,-4.62
2022-12-18T11:27:53.356Z,-4.45
2022-12-18T11:30:25.046Z,-4.32
2022-12-18T11:32:57.280Z,-4.45
2022-12-18T11:35:29.661Z,-4.38
2022-12-18T11:38:04.042Z,-4.42
2022-12-18T11:40:43.065Z,-4.42
2022-12-18T11:43:38.699Z,-4.32
2022-12-18T11:46:13.511Z,-4.32
2022-12-18T11:48:51.553Z,-4.37
2022-12-18T11:51:27.458Z,-4.29
2022-12-18T11:53:54.057Z,-4.43
2022-12-18T11:56:29.759Z,-4.44
2022-12-18T11:59:15.197Z,-4.52
2022-12-18T12:01:52.983Z,-4.49
2022-12-18T12:04:38.048Z,-4.32
2022-12-18T12:07:24.543Z,-4.30
2022-12-18T12:10:09.583Z,-4.71
2022-12-18T12:12:55.025Z,-4.60
2022-12-18T12:15:31.820Z,-4.46
2022-12-18T12:18:06.865Z,-4.58
2022-12-18T12:20:39.415Z,-4.39
2022-12-18T12:23:12.775Z,-4.29
2022-12-18T12:25:44.293Z,-4.11
2022-12-18T12:28:15.695Z,-4.13
2022-12-18T12:30:45.017Z,-4.04
2022-12-18T12:33:26.852Z,-4.19
2022-12-18T12:36:00.753Z,-4.23
2022-12-18T12:38:36.597Z,-4.26
2022-12-18T12:41:05.276Z,-4.36
2022-12-18T12:43:50.573Z,-4.34
2022-12-18T12:46:20.007Z,-4.59
2022-12-18T12:48:49.472Z,-4.39
2022-12-18T12:51:21.927Z,-4.32
2022-12-18T12:53:49.969Z,-4.17
2022-12-18T12:56:18.358Z,-4.40
2022-12-18T12:59:05.535Z,-4.42
2022-12-18T13:01:42.553Z,-4.63
2022-12-18T13:04:09.858Z,-4.55
2022-12-18T13:06:46.885Z,-4.64
2022-12-18T13:09:13.866Z,-4.35
2022-12-18T13:12:00.380Z,-4.55
2022-12-18T13:14:27.207Z,-4.47
2022-12-18T13:17:13.776Z,-4.32
2022-12-18T13:19:40.338Z,-4.54
2022-12-18T13:22:21.767Z,-4.31
2022-12-18T13:24:48.565Z,-4.25
2022-12-18T13:27:34.727Z,-4.40
2022-12-18T13:30:02.088Z,-4.04
2022-12-18T13:32:28.639Z,-4.01
2022-12-18T13:35:13.857Z,-4.04
2022-12-18T13:37:42.036Z,-4.06
2022-12-18T13:40:27.786Z,-4.21
2022-12-18T13:43:13.889Z,-4.05
2022-12-18T13:45:47.341Z,-4.16
2022-12-18T13:48:18.432Z,-4.07
2022-12-18T13:50:49.574Z,-3.87
2022-12-18T13:53:25.801Z,-4.14
2022-12-18T13:55:52.608Z,-4.35
2022-12-18T13:58:19.094Z,-4.45
2022-12-18T14:00:46.183Z,-4.20
2022-12-18T14:03:22.643Z,-4.44
2022-12-18T14:06:15.646Z,-4.54
2022-12-18T14:08:44.721Z,-4.78
2022-12-18T14:11:23.337Z,-4.65
2022-12-18T14:13:50.502Z,-4.29
2022-12-18T14:16:18.066Z,-4.33
2022-12-18T14:19:04.130Z,-4.36
2022-12-18T14:21:41.533Z,-4.36
2022-12-18T14:24:15.522Z,-4.43
2022-12-18T14:26:44.777Z,-4.46
2022-12-18T14:29:28.147Z,-4.75
2022-12-18T14:32:09.407Z,-4.63
2022-12-18T14:34:38.458Z,-4.63
2022-12-18T14:37:05.465Z,-4.71
2022-12-18T14:39:31.946Z,-4.44
2022-12-18T14:41:58.480Z,-4.65
2022-12-18T14:44:25.357Z,-4.71
2022-12-18T14:46:52.316Z,-5.00
2022-12-18T14:49:26.089Z,-4.94
2022-12-18T14:51:56.541Z,-5.07
2022-12-18T14:54:24.627Z,-4.97
2022-12-18T14:57:05.443Z,-4.86
2022-12-18T14:59:32.786Z,-5.00
2022-12-18T15:02:19.815Z,-4.86
2022-12-18T15:04:46.911Z,-4.81
2022-12-18T15:07:17.384Z,-4.71
2022-12-18T15:10:02.798Z,-4.65
2022-12-18T15:12:29.259Z,-4.60
2022-12-18T15:14:55.724Z,-4.74
2022-12-18T15:17:26.832Z,-4.75
2022-12-18T15:19:55.170Z,-4.77
2022-12-18T15:22:29.507Z,-4.56
2022-12-18T15:24:57.181Z,-4.78
2022-12-18T15:27:23.715Z,-4.86
2022-12-18T15:30:17.169Z,-5.00
2022-12-18T15:32:43.721Z,-4.89
2022-12-18T15:35:10.302Z,-4.70
2022-12-18T15:37:36.823Z,-4.85
2022-12-18T15:40:03.690Z,-4.70
2022-12-18T15:42:49.173Z,-4.64
2022-12-18T15:45:15.960Z,-4.80
2022-12-18T15:47:45.290Z,-4.75
2022-12-18T15:50:11.825Z,-4.85
2022-12-18T15:52:45.824Z,-4.59
2022-12-18T15:55:34.732Z,-5.11
2022-12-18T15:58:02.642Z,-5.02
2022-12-18T16:00:29.148Z,-4.90
2022-12-18T16:02:55.738Z,-5.12
2022-12-18T16:05:22.829Z,-5.16
2022-12-18T16:07:49.298Z,-4.92
2022-12-18T16:10:15.928Z,-4.90
2022-12-18T16:12:43.307Z,-5.09
2022-12-18T16:15:12.521Z,-5.13
2022-12-18T16:17:39.127Z,-5.11
2022-12-18T16:20:05.898Z,-4.95
2022-12-18T16:22:32.398Z,-5.11
2022-12-18T16:24:59.004Z,-4.78
2022-12-18T16:27:26.098Z,-5.02
2022-12-18T16:29:52.550Z,-4.84
2022-12-18T16:32:20.604Z,-4.76
2022-12-18T16:34:47.409Z,-4.69
2022-12-18T16:37:15.018Z,-5.04
2022-12-18T16:39:42.168Z,-4.83
2022-12-18T16:42:17.301Z,-4.98
2022-12-18T16:44:44.150Z,-4.92
2022-12-18T16:47:12.940Z,-4.84
2022-12-18T16:49:42.010Z,-4.91
2022-12-18T16:52:08.870Z,-4.88
2022-12-18T16:54:36.704Z,-4.95
2022-12-18T16:57:05.364Z,-5.04
2022-12-18T16:59:32.175Z,-4.29
2022-12-18T17:01:58.810Z,-4.88
2022-12-18T17:04:25.526Z,-5.05
2022-12-18T17:06:52.150Z,-5.09
2022-12-18T17:09:25.523Z,-5.21
2022-12-18T17:11:52.790Z,-5.20
2022-12-18T17:14:20.785Z,-5.33
2022-12-18T17:16:49.142Z,-5.30
2022-12-18T17:19:18.079Z,-5.35
2022-12-18T17:21:45.724Z,-5.39
2022-12-18T17:24:12.275Z,-5.38
2022-12-18T17:26:39.106Z,-5.31
2022-12-18T17:29:06.140Z,-5.36
2022-12-18T17:31:32.885Z,-5.39
2022-12-18T17:34:01.376Z,-5.55
2022-12-18T17:36:34.283Z,-5.41
2022-12-18T17:39:06.714Z,-5.50
2022-12-18T17:41:34.029Z,-5.34
2022-12-18T17:44:01.905Z,-5.35
2022-12-18T17:46:29.537Z,-5.41
2022-12-18T17:48:56.628Z,-5.48
2022-12-18T17:51:23.401Z,-5.49
2022-12-18T17:53:50.362Z,-5.62
2022-12-18T17:56:18.639Z,-5.80
2022-12-18T17:58:45.173Z,-5.71
2022-12-18T18:01:16.482Z,-5.54
2022-12-18T18:03:43.917Z,-5.83
2022-12-18T18:06:11.518Z,-5.68
2022-12-18T18:08:38.131Z,-5.64
2022-12-18T18:11:25.029Z,-5.73
2022-12-18T18:14:00.846Z,-5.67
2022-12-18T18:16:28.631Z,-5.68
2022-12-18T18:18:57.083Z,-5.75
2022-12-18T18:21:23.590Z,-5.86
2022-12-18T18:23:53.113Z,-5.77
2022-12-18T18:26:19.776Z,-5.64
2022-12-18T18:28:46.306Z,-5.68
2022-12-18T18:31:13.068Z,-5.76
2022-12-18T18:33:40.051Z,-5.78
2022-12-18T18:36:09.896Z,-5.94
2022-12-18T18:38:42.088Z,-5.87
2022-12-18T18:41:11.234Z,-5.73
2022-12-18T18:43:37.778Z,-5.79
2022-12-18T18:46:05.688Z,-5.83
2022-12-18T18:48:34.482Z,-5.83
2022-12-18T18:51:06.518Z,-6.05
2022-12-18T18:53:37.018Z,-5.94
2022-12-18T18:56:37.746Z,-6.03
2022-12-18T18:58:50.290Z,-5.94
2022-12-18T19:01:18.150Z,-5.86
2022-12-18T19:03:45.242Z,-5.88
2022-12-18T19:06:14.209Z,-5.92
2022-12-18T19:08:41.079Z,-5.76
2022-12-18T19:11:33.097Z,-5.82
2022-12-18T19:14:04.616Z,-5.80
2022-12-18T19:16:31.569Z,-5.86
2022-12-18T19:19:01.828Z,-5.86
2022-12-18T19:21:29.392Z,-5.80
2022-12-18T19:23:58.989Z,-5.86
2022-12-18T19:26:27.911Z,-5.78
2022-12-18T19:28:54.892Z,-5.79
2022-12-18T19:31:28.048Z,-5.77
2022-12-18T19:33:57.161Z,-5.87
2022-12-18T19:36:25.330Z,-5.83
2022-12-18T19:38:53.208Z,-5.77
2022-12-18T19:41:20.211Z,-5.75
2022-12-18T19:43:47.342Z,-5.94
2022-12-18T19:46:15.859Z,-5.91
2022-12-18T19:48:43.462Z,-5.98
2022-12-18T19:51:11.983Z,-5.92
2022-12-18T19:53:38.435Z,-5.78
2022-12-18T19:56:09.391Z,-5.87
2022-12-18T19:58:36.069Z,-5.92
2022-12-18T20:01:02.760Z,-5.88
2022-12-18T20:03:32.841Z,-5.85
2022-12-18T20:06:13.676Z,-5.90
2022-12-18T20:08:40.578Z,-5.85
2022-12-18T20:11:07.392Z,-5.92
2022-12-18T20:13:34.396Z,-5.80
2022-12-18T20:16:01.292Z,-5.94
2022-12-18T20:18:27.854Z,-6.08
2022-12-18T20:20:54.384Z,-5.98
2022-12-18T20:23:23.332Z,-6.08
2022-12-18T20:25:52.380Z,-6.06
2022-12-18T20:28:19.015Z,-5.80
2022-12-18T20:30:45.496Z,-5.94
2022-12-18T20:33:11.961Z,-5.81
2022-12-18T20:35:38.513Z,-5.80
2022-12-18T20:38:05.915Z,-5.62
2022-12-18T20:40:33.319Z,-5.79
2022-12-18T20:43:00.333Z,-5.83
2022-12-18T20:45:28.296Z,-5.84
2022-12-18T20:47:59.403Z,-6.07
2022-12-18T20:50:26.100Z,-5.83
2022-12-18T20:52:52.590Z,-5.82
2022-12-18T20:55:19.504Z,-5.73
2022-12-18T20:57:46.063Z,-5.70
2022-12-18T21:00:12.885Z,-5.97
2022-12-18T21:02:43.050Z,-6.03
2022-12-18T21:05:09.727Z,-5.87
2022-12-18T21:07:36.227Z,-5.69
2022-12-18T21:10:06.216Z,-5.65
2022-12-18T21:12:44.004Z,-5.87
2022-12-18T21:15:28.549Z,-5.77
2022-12-18T21:17:55.648Z,-5.63
2022-12-18T21:20:22.482Z,-5.88
2022-12-18T21:22:49.512Z,-5.88
2022-12-18T21:25:16.164Z,-5.87
2022-12-18T21:27:42.666Z,-5.71
2022-12-18T21:30:09.358Z,-5.85
2022-12-18T21:32:41.795Z,-5.93
2022-12-18T21:35:08.466Z,-5.87
2022-12-18T21:37:35.257Z,-5.87
2022-12-18T21:40:01.773Z,-5.77
2022-12-18T21:42:47.170Z,-5.70
2022-12-18T21:45:13.662Z,-5.77
2022-12-18T21:47:40.232Z,-5.82
2022-12-18T21:50:06.886Z,-5.86
2022-12-18T21:52:33.750Z,-5.88
2022-12-18T21:55:06.616Z,-5.82
2022-12-18T21:57:35.450Z,-5.68
2022-12-18T22:00:02.897Z,-5.75
2022-12-18T22:02:29.780Z,-5.94
2022-12-18T22:04:56.591Z,-5.79
2022-12-18T22:07:23.181Z,-5.75
2022-12-18T22:09:49.823Z,-5.86
2022-12-18T22:12:35.365Z,-5.79
2022-12-18T22:15:03.878Z,-5.64
2022-12-18T22:17:30.471Z,-5.64
2022-12-18T22:19:57.249Z,-5.70
2022-12-18T22:22:23.906Z,-5.76
2022-12-18T22:24:50.392Z,-5.63
2022-12-18T22:27:16.867Z,-5.62
2022-12-18T22:30:01.990Z,-5.72
2022-12-18T22:32:31.137Z,-5.66
2022-12-18T22:35:06.897Z,-5.77
2022-12-18T22:37:36.096Z,-5.56
2022-12-18T22:40:04.104Z,-5.79
2022-12-18T22:42:31.202Z,-5.65
2022-12-18T22:44:57.669Z,-5.89
2022-12-18T22:47:28.009Z,-5.77
2022-12-18T22:49:56.224Z,-5.86
2022-12-18T22:52:23.853Z,-5.91
2022-12-18T22:54:53.363Z,-5.70
2022-12-18T22:57:20.321Z,-5.70
2022-12-18T22:59:46.765Z,-5.74
2022-12-18T23:02:13.579Z,-5.73
2022-12-18T23:04:40.440Z,-5.58
2022-12-18T23:07:07.025Z,-5.70
2022-12-18T23:09:35.554Z,-5.83
2022-12-18T23:12:01.985Z,-5.78
2022-12-18T23:14:28.951Z,-5.70
2022-12-18T23:16:55.911Z,-5.78
2022-12-18T23:19:23.648Z,-5.82
2022-12-18T23:21:50.704Z,-5.92
2022-12-18T23:24:17.287Z,-5.96
2022-12-18T23:26:43.951Z,-5.82
2022-12-18T23:29:10.551Z,-5.99
2022-12-18T23:31:38.591Z,-6.06
2022-12-18T23:34:05.766Z,-5.94
2022-12-18T23:36:35.847Z,-5.73
2022-12-18T23:39:21.606Z,-5.63
2022-12-18T23:41:55.690Z,-5.77
2022-12-18T23:44:22.265Z,-5.61
2022-12-18T23:46:48.905Z,-5.61
2022-12-18T23:49:15.554Z,-5.54
2022-12-18T23:51:42.268Z,-5.60
2022-12-18T23:54:10.280Z,-5.50
2022-12-18T23:56:36.790Z,-5.48
2022-12-18T23:59:03.411Z,-5.53
